Time;durP1;ratioP1;P1;durP2;ratioP2;P2;SDS_P1;SDS_P2;PMS_P1;PMS_P2;Temp;Humidity;BMP_temperature;BMP_pressure;BME280_temperature;BME280_humidity;BME280_pressure;Samples;Min_cycle;Max_cycle;Signal;HPM_P1;HPM_P2
2021/06/02 00:00:12;;;;;;;1.70;1.30;;;;;;;;;;5067786;28;20038;-80
2021/06/02 00:02:39;;;;;;;1.92;1.10;;;;;;;;;;5089413;28;20049;-80
2021/06/02 00:05:06;;;;;;;3.67;1.60;;;;;;;;;;5064339;28;20048;-80
2021/06/02 00:07:33;;;;;;;1.40;1.40;;;;;;;;;;5068764;28;20102;-80
2021/06/02 00:10:00;;;;;;;3.42;1.10;;;;;;;;;;5065826;28;20041;-80
2021/06/02 00:12:27;;;;;;;1.20;1.20;;;;;;;;;;5068237;28;20051;-80
2021/06/02 00:14:53;;;;;;;1.55;1.33;;;;;;;;;;5063983;28;20036;-80
2021/06/02 00:17:20;;;;;;;1.95;1.25;;;;;;;;;;5049664;28;20048;-80
2021/06/02 00:19:48;;;;;;;1.30;1.30;;;;;;;;;;5066993;28;20074;-80
2021/06/02 00:22:15;;;;;;;2.28;1.52;;;;;;;;;;5060490;28;20588;-80
2021/06/02 00:24:42;;;;;;;1.15;1.10;;;;;;;;;;5057825;28;20059;-80
2021/06/02 00:27:13;;;;;;;5.97;1.17;;;;;;;;;;5065262;28;20048;-80
2021/06/02 00:29:43;;;;;;;1.30;1.30;;;;;;;;;;5063703;28;20036;-80
2021/06/02 00:32:10;;;;;;;1.42;1.33;;;;;;;;;;5067098;28;20103;-80
2021/06/02 00:34:37;;;;;;;3.60;1.77;;;;;;;;;;5068346;28;20043;-80
2021/06/02 00:37:05;;;;;;;1.30;1.30;;;;;;;;;;5065902;28;20048;-80
2021/06/02 00:39:32;;;;;;;3.50;1.48;;;;;;;;;;5069157;28;20478;-80
2021/06/02 00:41:59;;;;;;;2.60;1.40;;;;;;;;;;5046061;28;20640;-80
2021/06/02 00:44:26;;;;;;;1.40;1.30;;;;;;;;;;5061680;28;20048;-80
2021/06/02 00:46:56;;;;;;;1.40;1.40;;;;;;;;;;5069580;28;20044;-80
2021/06/02 00:49:24;;;;;;;1.27;1.27;;;;;;;;;;5070406;28;20043;-80
2021/06/02 00:51:54;;;;;;;1.33;1.23;;;;;;;;;;5073473;28;20044;-80
2021/06/02 00:54:21;;;;;;;1.73;1.63;;;;;;;;;;5069967;28;20032;-80
2021/06/02 00:56:49;;;;;;;2.50;1.42;;;;;;;;;;5067762;28;20044;-80
2021/06/02 00:59:17;;;;;;;1.90;1.80;;;;;;;;;;5099860;28;20040;-80
2021/06/02 01:01:44;;;;;;;1.58;1.58;;;;;;;;;;5068856;28;20075;-80
2021/06/02 01:04:11;;;;;;;2.55;1.48;;;;;;;;;;5071530;28;20569;-80
2021/06/02 01:06:40;;;;;;;1.50;1.50;;;;;;;;;;5102715;28;20048;-80
2021/06/02 01:09:07;;;;;;;1.40;1.30;;;;;;;;;;5072216;28;20036;-80
2021/06/02 01:11:34;;;;;;;1.30;1.30;;;;;;;;;;5059145;28;20094;-80
2021/06/02 01:14:03;;;;;;;1.33;1.33;;;;;;;;;;5101042;28;20465;-80
2021/06/02 01:16:34;;;;;;;2.35;1.40;;;;;;;;;;5069056;28;20061;-80
2021/06/02 01:19:01;;;;;;;1.60;1.20;;;;;;;;;;5070235;28;20474;-80
2021/06/02 01:21:29;;;;;;;1.40;1.30;;;;;;;;;;5054150;28;20551;-80
2021/06/02 01:23:58;;;;;;;1.98;1.80;;;;;;;;;;5072736;28;20040;-80
2021/06/02 01:26:26;;;;;;;1.33;1.20;;;;;;;;;;5072241;28;20037;-80
2021/06/02 01:28:53;;;;;;;2.05;2.00;;;;;;;;;;5064095;28;20048;-80
2021/06/02 01:31:29;;;;;;;1.42;1.40;;;;;;;;;;5103995;28;20048;-80
2021/06/02 01:34:12;;;;;;;1.50;1.50;;;;;;;;;;5069865;28;20039;-80
2021/06/02 01:36:57;;;;;;;1.52;1.20;;;;;;;;;;5088587;28;20037;-80
2021/06/02 01:39:47;;;;;;;1.60;1.60;;;;;;;;;;5069794;28;20044;-80
2021/06/02 01:42:17;;;;;;;2.95;1.83;;;;;;;;;;5064085;28;20051;-80
2021/06/02 01:44:50;;;;;;;1.88;1.77;;;;;;;;;;5089866;28;20044;-80
2021/06/02 01:47:23;;;;;;;1.38;1.30;;;;;;;;;;5065649;28;20098;-80
2021/06/02 01:50:08;;;;;;;2.47;1.67;;;;;;;;;;5064132;28;20519;-80
2021/06/02 01:52:55;;;;;;;5.60;2.53;;;;;;;;;;5072849;28;20102;-79
2021/06/02 01:55:48;;;;;;;2.38;2.13;;;;;;;;;;5070696;28;20048;-79
2021/06/02 01:58:33;;;;;;;1.70;1.70;;;;;;;;;;5063435;28;20052;-80
2021/06/02 02:01:00;;;;;;;2.30;2.20;;;;;;;;;;5065382;28;20106;-79
2021/06/02 02:03:45;;;;;;;2.15;2.05;;;;;;;;;;5050634;28;20045;-79
2021/06/02 02:06:27;;;;;;;2.22;2.13;;;;;;;;;;5067390;28;20033;-79
2021/06/02 02:09:01;;;;;;;2.65;2.45;;;;;;;;;;5069015;28;20037;-79
2021/06/02 02:11:29;;;;;;;2.35;1.85;;;;;;;;;;5072512;28;20539;-79
2021/06/02 02:13:56;;;;;;;1.80;1.80;;;;;;;;;;5069541;28;20078;-79
2021/06/02 02:16:33;;;;;;;2.83;2.72;;;;;;;;;;5051576;28;20091;-79
2021/06/02 02:19:12;;;;;;;1.85;1.75;;;;;;;;;;5070706;28;20047;-80
2021/06/02 02:21:42;;;;;;;1.73;1.73;;;;;;;;;;5070864;28;20086;-80
2021/06/02 02:24:12;;;;;;;1.42;1.42;;;;;;;;;;5089114;28;20048;-80
2021/06/02 02:26:49;;;;;;;2.22;1.85;;;;;;;;;;5069545;28;20040;-80
2021/06/02 02:29:34;;;;;;;2.10;2.03;;;;;;;;;;5070933;28;20424;-80
2021/06/02 02:32:13;;;;;;;1.50;1.50;;;;;;;;;;5056714;28;20045;-80
2021/06/02 02:35:07;;;;;;;1.98;1.88;;;;;;;;;;5066008;28;20037;-80
2021/06/02 02:38:00;;;;;;;1.50;1.50;;;;;;;;;;5070907;28;20041;-80
2021/06/02 02:40:44;;;;;;;1.60;1.60;;;;;;;;;;5066962;28;20045;-80
2021/06/02 02:43:13;;;;;;;3.22;2.65;;;;;;;;;;5064417;28;20048;-79
2021/06/02 02:46:06;;;;;;;1.67;1.58;;;;;;;;;;5064608;28;20048;-79
2021/06/02 02:48:33;;;;;;;1.83;1.83;;;;;;;;;;5058725;28;20396;-79
2021/06/02 02:51:01;;;;;;;1.83;1.73;;;;;;;;;;5065870;28;20102;-79
2021/06/02 02:53:30;;;;;;;1.50;1.50;;;;;;;;;;5093983;28;20574;-79
2021/06/02 02:55:59;;;;;;;2.20;2.10;;;;;;;;;;5059259;28;20029;-79
2021/06/02 02:58:26;;;;;;;1.80;1.70;;;;;;;;;;5062266;28;20036;-79
2021/06/02 03:00:59;;;;;;;1.77;1.70;;;;;;;;;;5092114;28;20041;-79
2021/06/02 03:03:25;;;;;;;1.45;1.42;;;;;;;;;;5066179;28;20045;-79
2021/06/02 03:06:07;;;;;;;1.40;1.40;;;;;;;;;;5055889;28;20048;-79
2021/06/02 03:08:38;;;;;;;2.00;1.90;;;;;;;;;;5064873;28;20053;-80
2021/06/02 03:11:26;;;;;;;2.17;1.90;;;;;;;;;;5063215;28;20536;-80
2021/06/02 03:13:58;;;;;;;1.42;1.42;;;;;;;;;;5090918;28;20041;-80
2021/06/02 03:16:30;;;;;;;2.05;2.05;;;;;;;;;;5069507;28;20075;-80
2021/06/02 03:18:59;;;;;;;2.33;2.33;;;;;;;;;;5066228;28;20040;-80
2021/06/02 03:21:35;;;;;;;1.58;1.52;;;;;;;;;;5068823;28;20370;-80
2021/06/02 03:24:08;;;;;;;1.90;1.73;;;;;;;;;;5068175;28;20051;-79
2021/06/02 03:26:37;;;;;;;2.55;1.58;;;;;;;;;;5069383;28;20051;-79
2021/06/02 03:29:10;;;;;;;2.13;2.13;;;;;;;;;;5070241;28;20055;-79
2021/06/02 03:31:55;;;;;;;2.45;2.08;;;;;;;;;;5062939;28;20414;-79
2021/06/02 03:34:25;;;;;;;1.90;1.90;;;;;;;;;;5081576;28;20041;-79
2021/06/02 03:37:01;;;;;;;1.95;1.77;;;;;;;;;;5071159;28;20032;-80
2021/06/02 03:39:34;;;;;;;4.20;1.80;;;;;;;;;;5081547;28;20033;-80
2021/06/02 03:42:01;;;;;;;1.73;1.73;;;;;;;;;;5086786;28;20040;-80
2021/06/02 03:44:37;;;;;;;1.90;1.80;;;;;;;;;;5069092;28;20048;-80
2021/06/02 03:47:22;;;;;;;1.60;1.58;;;;;;;;;;5065411;28;20102;-80
2021/06/02 03:50:01;;;;;;;2.05;2.05;;;;;;;;;;5067419;28;20040;-80
2021/06/02 03:52:40;;;;;;;1.85;1.75;;;;;;;;;;5081712;28;20103;-80
2021/06/02 03:55:07;;;;;;;2.00;1.88;;;;;;;;;;5097964;28;20044;-80
2021/06/02 03:57:36;;;;;;;1.55;1.55;;;;;;;;;;5070492;28;20037;-80
2021/06/02 04:00:08;;;;;;;2.55;2.33;;;;;;;;;;5068483;28;20032;-80
2021/06/02 04:02:35;;;;;;;1.88;1.83;;;;;;;;;;5064118;28;20040;-80
2021/06/02 04:05:02;;;;;;;1.40;1.40;;;;;;;;;;5063284;28;20161;-80
2021/06/02 04:07:47;;;;;;;1.73;1.73;;;;;;;;;;5049856;28;20086;-79
2021/06/02 04:10:19;;;;;;;2.28;2.08;;;;;;;;;;5068715;28;20056;-79
2021/06/02 04:12:55;;;;;;;2.72;2.00;;;;;;;;;;5069469;28;20041;-79
2021/06/02 04:15:22;;;;;;;1.85;1.75;;;;;;;;;;5066608;28;20047;-79
2021/06/02 04:17:50;;;;;;;1.80;1.70;;;;;;;;;;5067058;28;20359;-79
2021/06/02 04:20:18;;;;;;;3.97;1.88;;;;;;;;;;5047461;28;20091;-79
2021/06/02 04:22:45;;;;;;;2.92;1.80;;;;;;;;;;5072500;28;20043;-79
2021/06/02 04:25:17;;;;;;;1.98;1.98;;;;;;;;;;5075816;28;20044;-79
2021/06/02 04:27:47;;;;;;;2.15;2.10;;;;;;;;;;5072159;28;20032;-79
2021/06/02 04:30:15;;;;;;;1.60;1.60;;;;;;;;;;5076459;28;20052;-79
2021/06/02 04:32:44;;;;;;;1.85;1.75;;;;;;;;;;5066516;28;20053;-79
2021/06/02 04:35:14;;;;;;;1.85;1.85;;;;;;;;;;5105486;28;20037;-79
2021/06/02 04:37:41;;;;;;;1.80;1.80;;;;;;;;;;5072047;28;20719;-80
2021/06/02 04:40:08;;;;;;;2.03;1.92;;;;;;;;;;5075131;28;20090;-80
2021/06/02 04:42:36;;;;;;;1.73;1.63;;;;;;;;;;5074040;28;20035;-80
2021/06/02 04:45:04;;;;;;;1.83;1.73;;;;;;;;;;5061883;28;20110;-79
2021/06/02 04:47:32;;;;;;;2.75;2.05;;;;;;;;;;5071229;28;20037;-79
2021/06/02 04:50:11;;;;;;;8.02;2.38;;;;;;;;;;5076062;28;20048;-80
2021/06/02 04:52:53;;;;;;;2.10;1.90;;;;;;;;;;5055652;28;20493;-80
2021/06/02 04:55:35;;;;;;;2.17;2.00;;;;;;;;;;5075062;28;20082;-80
2021/06/02 04:58:14;;;;;;;2.67;1.88;;;;;;;;;;5073621;28;20044;-80
2021/06/02 05:00:57;;;;;;;1.80;1.70;;;;;;;;;;5073606;28;20055;-80
2021/06/02 05:03:33;;;;;;;2.30;2.20;;;;;;;;;;5074067;28;20394;-80
2021/06/02 05:06:23;;;;;;;1.90;1.80;;;;;;;;;;5074538;28;20040;-80
2021/06/02 05:09:05;;;;;;;3.47;1.75;;;;;;;;;;5075687;28;20143;-80
2021/06/02 05:11:51;;;;;;;4.78;1.40;;;;;;;;;;5076153;28;20036;-80
2021/06/02 05:14:24;;;;;;;1.60;1.60;;;;;;;;;;5059698;28;20025;-80
2021/06/02 05:16:54;;;;;;;1.67;1.67;;;;;;;;;;5089946;28;20040;-80
2021/06/02 05:22:24;;;;;;;1.20;1.20;;;;;;;;;;5065323;28;20040;-80
2021/06/02 05:25:09;;;;;;;1.60;1.50;;;;;;;;;;5066669;28;20037;-80
2021/06/02 05:27:48;;;;;;;1.38;1.38;;;;;;;;;;5084958;28;20029;-80
2021/06/02 05:30:24;;;;;;;1.45;1.45;;;;;;;;;;5088555;28;20049;-75
2021/06/02 05:33:10;;;;;;;2.05;1.60;;;;;;;;;;5074369;28;20044;-75
2021/06/02 05:35:55;;;;;;;1.35;1.35;;;;;;;;;;5063944;28;20036;-75
2021/06/02 05:38:40;;;;;;;1.30;1.30;;;;;;;;;;5066782;28;20436;-75
2021/06/02 05:41:08;;;;;;;1.60;1.50;;;;;;;;;;5071440;28;20070;-75
2021/06/02 05:43:38;;;;;;;1.13;1.13;;;;;;;;;;5068797;28;20033;-75
2021/06/02 05:46:11;;;;;;;3.00;1.20;;;;;;;;;;5072401;28;20040;-75
2021/06/02 05:49:01;;;;;;;1.17;1.17;;;;;;;;;;5070895;28;20055;-75
2021/06/02 05:51:37;;;;;;;1.00;1.00;;;;;;;;;;5061823;28;20106;-75
2021/06/02 05:54:15;;;;;;;1.00;1.00;;;;;;;;;;5071743;28;20048;-75
2021/06/02 05:57:14;;;;;;;1.10;1.10;;;;;;;;;;5100778;28;20592;-75
2021/06/02 05:59:59;;;;;;;1.88;1.00;;;;;;;;;;5057426;28;20053;-75
2021/06/02 06:02:29;;;;;;;0.95;0.95;;;;;;;;;;5070474;28;20032;-75
2021/06/02 06:05:14;;;;;;;1.10;1.00;;;;;;;;;;5070767;28;20047;-75
2021/06/02 06:07:59;;;;;;;2.40;1.30;;;;;;;;;;5061809;28;20734;-75
2021/06/02 06:10:45;;;;;;;0.90;0.90;;;;;;;;;;5071195;28;20489;-75
2021/06/02 06:13:25;;;;;;;1.10;1.10;;;;;;;;;;5069090;28;20076;-75
2021/06/02 06:16:07;;;;;;;1.85;1.00;;;;;;;;;;5069339;28;20028;-75
2021/06/02 06:18:36;;;;;;;0.90;0.90;;;;;;;;;;5070149;28;20497;-75
2021/06/02 06:21:22;;;;;;;1.48;1.00;;;;;;;;;;5061953;28;20045;-75
2021/06/02 06:23:57;;;;;;;0.90;0.90;;;;;;;;;;5076068;28;20033;-75
2021/06/02 06:26:27;;;;;;;0.90;0.90;;;;;;;;;;5071040;28;20090;-75
2021/06/02 06:29:06;;;;;;;1.13;1.10;;;;;;;;;;5065945;28;20033;-75
2021/06/02 06:31:34;;;;;;;0.90;0.90;;;;;;;;;;5060809;28;20033;-75
2021/06/02 06:34:14;;;;;;;1.40;0.90;;;;;;;;;;5058913;28;20091;-75
2021/06/02 06:36:42;;;;;;;1.00;1.00;;;;;;;;;;5068699;28;20075;-75
2021/06/02 06:39:17;;;;;;;2.03;1.25;;;;;;;;;;5069462;28;20033;-75
2021/06/02 06:41:46;;;;;;;0.90;0.90;;;;;;;;;;5058749;28;20094;-75
2021/06/02 06:44:14;;;;;;;0.93;0.93;;;;;;;;;;5063836;28;20032;-75
2021/06/02 06:46:41;;;;;;;1.67;1.00;;;;;;;;;;5062174;28;20041;-75
2021/06/02 06:49:10;;;;;;;1.67;0.90;;;;;;;;;;5069984;28;20028;-75
2021/06/02 06:51:38;;;;;;;0.90;0.90;;;;;;;;;;5069537;28;20095;-75
2021/06/02 06:54:09;;;;;;;1.00;1.00;;;;;;;;;;5070547;28;20043;-75
2021/06/02 06:56:36;;;;;;;0.90;0.90;;;;;;;;;;5069361;28;20033;-75
2021/06/02 06:59:03;;;;;;;1.50;0.90;;;;;;;;;;5052534;28;20140;-75
2021/06/02 07:01:31;;;;;;;0.80;0.80;;;;;;;;;;5070082;28;20481;-75
2021/06/02 07:03:58;;;;;;;1.20;1.20;;;;;;;;;;5067670;28;20028;-75
2021/06/02 07:06:25;;;;;;;0.90;0.90;;;;;;;;;;5064184;28;20099;-75
2021/06/02 07:08:52;;;;;;;1.38;0.80;;;;;;;;;;5066762;28;20048;-75
2021/06/02 07:11:18;;;;;;;0.90;0.90;;;;;;;;;;5068291;28;20087;-75
2021/06/02 07:13:46;;;;;;;0.80;0.80;;;;;;;;;;5070532;28;20045;-75
2021/06/02 07:16:14;;;;;;;0.93;0.90;;;;;;;;;;5067789;28;20060;-75
2021/06/02 07:18:41;;;;;;;1.15;0.80;;;;;;;;;;5070265;28;20040;-75
2021/06/02 07:21:08;;;;;;;0.90;0.90;;;;;;;;;;5068327;28;20024;-75
2021/06/02 07:23:37;;;;;;;4.13;0.90;;;;;;;;;;5068611;28;20424;-75
2021/06/02 07:26:04;;;;;;;1.60;1.52;;;;;;;;;;5069471;28;20044;-75
2021/06/02 07:28:51;;;;;;;0.80;0.80;;;;;;;;;;5066131;28;20048;-75
2021/06/02 07:31:18;;;;;;;0.80;0.80;;;;;;;;;;5067721;28;20044;-75
2021/06/02 07:33:45;;;;;;;0.80;0.80;;;;;;;;;;5070626;28;20079;-75
2021/06/02 07:36:11;;;;;;;0.85;0.85;;;;;;;;;;5069286;28;20105;-75
2021/06/02 07:38:39;;;;;;;0.88;0.88;;;;;;;;;;5069486;28;20385;-75
2021/06/02 07:41:06;;;;;;;0.85;0.85;;;;;;;;;;5096371;28;20098;-75
2021/06/02 07:43:32;;;;;;;0.80;0.80;;;;;;;;;;5053311;28;20025;-75
2021/06/02 07:45:59;;;;;;;0.82;0.82;;;;;;;;;;5068243;28;20036;-75
2021/06/02 07:48:26;;;;;;;0.90;0.90;;;;;;;;;;5066653;28;20060;-75
2021/06/02 07:50:53;;;;;;;1.80;1.00;;;;;;;;;;5069513;28;20048;-75
2021/06/02 07:53:20;;;;;;;0.80;0.80;;;;;;;;;;5067649;28;20052;-75
2021/06/02 07:55:47;;;;;;;0.80;0.80;;;;;;;;;;5068115;28;20412;-75
2021/06/02 07:58:14;;;;;;;0.80;0.80;;;;;;;;;;5068233;28;20478;-75
2021/06/02 08:00:41;;;;;;;0.80;0.80;;;;;;;;;;5068317;28;20033;-75
2021/06/02 08:03:07;;;;;;;0.73;0.73;;;;;;;;;;5068634;28;20041;-75
2021/06/02 08:05:34;;;;;;;1.83;0.70;;;;;;;;;;5066019;28;20118;-75
2021/06/02 08:08:01;;;;;;;0.80;0.80;;;;;;;;;;5069153;28;20094;-75
2021/06/02 08:10:28;;;;;;;0.80;0.80;;;;;;;;;;5068855;28;20562;-75
2021/06/02 08:12:55;;;;;;;0.70;0.70;;;;;;;;;;5067737;28;20052;-75
2021/06/02 08:15:22;;;;;;;0.70;0.70;;;;;;;;;;5067958;28;20432;-75
2021/06/02 08:17:49;;;;;;;0.80;0.80;;;;;;;;;;5067415;28;20166;-75
2021/06/02 08:20:16;;;;;;;4.95;0.70;;;;;;;;;;5066765;28;20044;-75
2021/06/02 08:22:43;;;;;;;0.80;0.80;;;;;;;;;;5058426;28;20045;-75
2021/06/02 08:25:11;;;;;;;0.80;0.80;;;;;;;;;;5098268;28;20048;-75
2021/06/02 08:27:38;;;;;;;0.73;0.73;;;;;;;;;;5065659;28;20115;-76
2021/06/02 08:30:07;;;;;;;0.80;0.80;;;;;;;;;;5061306;28;20473;-76
2021/06/02 08:32:34;;;;;;;0.80;0.80;;;;;;;;;;5056830;28;20036;-76
2021/06/02 08:35:01;;;;;;;1.02;0.75;;;;;;;;;;5067592;28;20094;-76
2021/06/02 08:37:28;;;;;;;0.75;0.75;;;;;;;;;;5063951;28;20040;-76
2021/06/02 08:39:55;;;;;;;2.05;0.70;;;;;;;;;;5056781;28;20048;-76
2021/06/02 08:42:21;;;;;;;0.70;0.70;;;;;;;;;;5069536;28;20040;-76
2021/06/02 08:44:48;;;;;;;28.90;2.25;;;;;;;;;;5051616;28;20033;-76
2021/06/02 08:47:15;;;;;;;1.50;0.80;;;;;;;;;;5054579;28;20044;-76
2021/06/02 08:49:42;;;;;;;1.38;0.80;;;;;;;;;;5079460;28;20041;-76
2021/06/02 08:52:09;;;;;;;0.80;0.80;;;;;;;;;;5067001;28;20052;-76
2021/06/02 08:54:36;;;;;;;2.97;0.80;;;;;;;;;;5067488;28;20475;-76
2021/06/02 08:57:05;;;;;;;0.95;0.70;;;;;;;;;;5067697;28;20037;-76
2021/06/02 08:59:32;;;;;;;0.93;0.70;;;;;;;;;;5050664;28;20034;-76
2021/06/02 09:01:59;;;;;;;0.70;0.70;;;;;;;;;;5060905;28;20457;-76
2021/06/02 09:04:26;;;;;;;2.13;0.70;;;;;;;;;;5068614;28;20037;-76
2021/06/02 09:06:54;;;;;;;0.80;0.70;;;;;;;;;;5067661;28;20374;-76
2021/06/02 09:09:21;;;;;;;0.70;0.70;;;;;;;;;;5068804;28;20059;-76
2021/06/02 09:11:49;;;;;;;0.60;0.60;;;;;;;;;;5071280;28;20084;-76
2021/06/02 09:14:43;;;;;;;2.15;0.60;;;;;;;;;;5071861;28;20127;-76
2021/06/02 09:17:11;;;;;;;0.60;0.60;;;;;;;;;;5068784;28;20053;-76
2021/06/02 09:19:42;;;;;;;1.65;0.60;;;;;;;;;;5071759;28;20048;-76
2021/06/02 09:22:16;;;;;;;0.60;0.60;;;;;;;;;;5068363;28;20105;-84
2021/06/02 09:24:43;;;;;;;1.85;0.70;;;;;;;;;;5068378;28;20040;-84
2021/06/02 09:27:10;;;;;;;1.23;0.60;;;;;;;;;;5071517;28;20114;-84
2021/06/02 09:29:53;;;;;;;3.38;0.70;;;;;;;;;;5071966;28;20047;-84
2021/06/02 09:32:21;;;;;;;1.70;0.60;;;;;;;;;;5054577;28;20040;-84
2021/06/02 09:34:48;;;;;;;0.60;0.60;;;;;;;;;;5069969;28;20044;-84
2021/06/02 09:37:15;;;;;;;0.73;0.60;;;;;;;;;;5071549;28;20090;-84
2021/06/02 09:39:43;;;;;;;0.70;0.70;;;;;;;;;;5070873;28;20048;-84
2021/06/02 09:42:22;;;;;;;0.60;0.60;;;;;;;;;;5068880;28;20052;-84
2021/06/02 09:45:00;;;;;;;1.35;0.60;;;;;;;;;;5070544;28;20517;-84
2021/06/02 09:47:40;;;;;;;1.20;0.80;;;;;;;;;;5071080;28;20045;-84
2021/06/02 09:50:11;;;;;;;0.60;0.60;;;;;;;;;;5069917;28;20568;-84
2021/06/02 09:52:49;;;;;;;0.60;0.60;;;;;;;;;;5067350;28;20125;-84
2021/06/02 09:55:17;;;;;;;0.60;0.60;;;;;;;;;;5071543;28;20948;-84
2021/06/02 09:57:44;;;;;;;2.00;0.60;;;;;;;;;;5099657;28;20060;-84
2021/06/02 10:00:27;;;;;;;0.60;0.60;;;;;;;;;;5069737;28;20044;-84
2021/06/02 10:02:58;;;;;;;16.83;0.70;;;;;;;;;;5063266;28;20043;-84
2021/06/02 10:05:45;;;;;;;0.70;0.70;;;;;;;;;;5065149;28;20555;-83
2021/06/02 10:08:23;;;;;;;5.40;0.60;;;;;;;;;;5101844;27;20057;-83
2021/06/02 10:10:51;;;;;;;0.50;0.50;;;;;;;;;;5065133;28;20493;-84
2021/06/02 10:13:19;;;;;;;12.93;0.85;;;;;;;;;;5068583;28;20436;-84
2021/06/02 10:15:47;;;;;;;0.52;0.52;;;;;;;;;;5068332;28;20043;-85
2021/06/02 10:18:34;;;;;;;0.52;0.52;;;;;;;;;;5069320;28;20040;-85
2021/06/02 10:21:04;;;;;;;0.80;0.60;;;;;;;;;;5082829;28;20128;-84
2021/06/02 10:23:35;;;;;;;0.60;0.60;;;;;;;;;;5061111;28;20044;-84
2021/06/02 10:26:03;;;;;;;0.60;0.60;;;;;;;;;;5085620;28;20533;-79
2021/06/02 10:28:31;;;;;;;3.33;0.70;;;;;;;;;;5074248;28;20051;-80
2021/06/02 10:30:58;;;;;;;1.20;0.60;;;;;;;;;;5072396;28;20044;-81
2021/06/02 10:33:25;;;;;;;0.60;0.60;;;;;;;;;;5072286;28;20497;-80
2021/06/02 10:35:57;;;;;;;0.50;0.50;;;;;;;;;;5072744;28;20036;-80
2021/06/02 10:38:24;;;;;;;0.57;0.57;;;;;;;;;;5069928;28;20036;-80
2021/06/02 10:40:51;;;;;;;2.95;0.60;;;;;;;;;;5071420;28;20052;-80
2021/06/02 10:43:20;;;;;;;3.90;0.70;;;;;;;;;;5062052;28;20033;-80
2021/06/02 10:45:54;;;;;;;0.73;0.60;;;;;;;;;;5069052;28;20440;-80
2021/06/02 10:48:37;;;;;;;0.57;0.57;;;;;;;;;;5071437;28;20449;-80
2021/06/02 10:51:04;;;;;;;0.50;0.50;;;;;;;;;;5068796;28;20044;-80
2021/06/02 10:53:31;;;;;;;1.65;0.50;;;;;;;;;;5070293;28;20040;-80
2021/06/02 10:55:59;;;;;;;1.70;0.50;;;;;;;;;;5071459;28;20049;-80
2021/06/02 10:58:27;;;;;;;1.60;0.50;;;;;;;;;;5072495;28;20037;-80
2021/06/02 11:01:06;;;;;;;2.40;0.45;;;;;;;;;;5072282;28;20036;-80
2021/06/02 11:03:34;;;;;;;0.50;0.50;;;;;;;;;;5071600;28;20044;-79
2021/06/02 11:06:14;;;;;;;0.68;0.50;;;;;;;;;;5072954;28;20042;-79
2021/06/02 11:08:50;;;;;;;1.27;0.82;;;;;;;;;;5071881;28;20056;-79
2021/06/02 11:11:20;;;;;;;0.50;0.50;;;;;;;;;;5070118;28;20045;-79
2021/06/02 11:14:06;;;;;;;0.50;0.50;;;;;;;;;;5070426;28;20044;-79
2021/06/02 11:16:40;;;;;;;1.48;0.52;;;;;;;;;;5072112;28;20064;-79
2021/06/02 11:19:20;;;;;;;0.50;0.50;;;;;;;;;;5054020;28;20131;-79
2021/06/02 11:21:53;;;;;;;0.50;0.50;;;;;;;;;;5073218;28;20109;-79
2021/06/02 11:24:47;;;;;;;1.20;0.50;;;;;;;;;;5091248;28;20398;-79
2021/06/02 11:27:15;;;;;;;0.43;0.43;;;;;;;;;;5069076;28;20048;-79
2021/06/02 11:29:45;;;;;;;0.40;0.40;;;;;;;;;;5050884;28;20045;-79
2021/06/02 11:32:15;;;;;;;1.20;0.40;;;;;;;;;;5030559;28;20071;-79
2021/06/02 11:34:46;;;;;;;0.40;0.40;;;;;;;;;;5027063;28;20064;-79
2021/06/02 11:37:15;;;;;;;1.00;0.40;;;;;;;;;;5069034;28;20581;-79
2021/06/02 11:39:43;;;;;;;0.30;0.30;;;;;;;;;;5064651;28;20052;-79
2021/06/02 11:42:11;;;;;;;1.08;0.40;;;;;;;;;;5047042;28;20628;-79
2021/06/02 11:44:38;;;;;;;2.55;0.40;;;;;;;;;;5059184;28;20065;-79
2021/06/02 11:47:09;;;;;;;0.30;0.30;;;;;;;;;;5062558;28;20082;-79
2021/06/02 11:49:36;;;;;;;0.40;0.40;;;;;;;;;;5067877;28;20052;-79
2021/06/02 11:52:07;;;;;;;0.40;0.40;;;;;;;;;;5051659;28;20048;-79
2021/06/02 11:54:50;;;;;;;0.40;0.40;;;;;;;;;;5068232;28;20487;-79
2021/06/02 11:57:21;;;;;;;0.40;0.40;;;;;;;;;;5052564;28;20040;-79
2021/06/02 11:59:48;;;;;;;1.08;0.40;;;;;;;;;;5048495;28;20033;-79
2021/06/02 12:02:14;;;;;;;0.32;0.32;;;;;;;;;;5057399;28;20040;-79
2021/06/02 12:04:41;;;;;;;0.30;0.30;;;;;;;;;;5072088;28;20036;-79
2021/06/02 12:07:21;;;;;;;0.30;0.30;;;;;;;;;;5070283;28;20110;-79
2021/06/02 12:09:54;;;;;;;0.30;0.30;;;;;;;;;;5058871;28;20047;-79
2021/06/02 12:12:22;;;;;;;1.05;0.30;;;;;;;;;;5071180;28;20078;-79
2021/06/02 12:14:52;;;;;;;0.65;0.32;;;;;;;;;;5045424;28;20299;-79
2021/06/02 12:17:26;;;;;;;0.30;0.30;;;;;;;;;;5071808;28;20087;-79
2021/06/02 12:19:53;;;;;;;1.13;0.73;;;;;;;;;;5096759;28;20124;-79
2021/06/02 12:22:20;;;;;;;0.30;0.30;;;;;;;;;;5065912;28;20044;-79
2021/06/02 12:25:06;;;;;;;0.30;0.30;;;;;;;;;;5081809;28;20091;-79
2021/06/02 12:27:42;;;;;;;0.40;0.40;;;;;;;;;;5066053;28;20025;-79
2021/06/02 12:30:10;;;;;;;1.27;0.30;;;;;;;;;;5071160;28;20118;-79
2021/06/02 12:32:53;;;;;;;1.38;0.40;;;;;;;;;;5062206;28;20064;-79
2021/06/02 12:35:41;;;;;;;0.40;0.40;;;;;;;;;;5061456;28;20068;-79
2021/06/02 12:38:15;;;;;;;0.50;0.50;;;;;;;;;;5056821;28;20032;-79
2021/06/02 12:40:55;;;;;;;0.40;0.40;;;;;;;;;;5072918;28;20067;-79
2021/06/02 12:43:25;;;;;;;0.40;0.40;;;;;;;;;;5064252;28;20056;-78
2021/06/02 12:46:06;;;;;;;0.40;0.40;;;;;;;;;;5076901;28;20371;-78
2021/06/02 12:48:35;;;;;;;1.10;0.40;;;;;;;;;;5071293;28;20052;-78
2021/06/02 12:51:02;;;;;;;0.40;0.40;;;;;;;;;;5080441;28;20040;-78
2021/06/02 12:53:40;;;;;;;1.25;0.40;;;;;;;;;;5043531;28;20049;-78
2021/06/02 12:56:08;;;;;;;0.30;0.30;;;;;;;;;;5052725;28;20739;-78
2021/06/02 12:58:36;;;;;;;1.10;0.30;;;;;;;;;;5020030;28;20063;-78
2021/06/02 13:01:06;;;;;;;0.40;0.40;;;;;;;;;;5036947;28;20052;-78
2021/06/02 13:03:35;;;;;;;0.40;0.40;;;;;;;;;;5051448;28;20124;-78
2021/06/02 13:06:02;;;;;;;0.40;0.40;;;;;;;;;;5047986;28;20060;-78
2021/06/02 13:08:37;;;;;;;0.52;0.52;;;;;;;;;;5049278;28;20672;-78
2021/06/02 13:11:05;;;;;;;1.33;0.40;;;;;;;;;;5046709;28;20076;-78
2021/06/02 13:13:33;;;;;;;1.27;0.40;;;;;;;;;;5048415;28;20041;-78
2021/06/02 13:16:00;;;;;;;0.40;0.40;;;;;;;;;;5055817;28;20119;-78
2021/06/02 13:18:28;;;;;;;0.40;0.40;;;;;;;;;;5057279;28;20564;-78
2021/06/02 13:20:56;;;;;;;0.30;0.30;;;;;;;;;;5069313;28;20433;-78
2021/06/02 13:23:24;;;;;;;0.30;0.30;;;;;;;;;;5047391;28;20121;-78
2021/06/02 13:25:58;;;;;;;0.93;0.30;;;;;;;;;;5071740;28;20433;-78
2021/06/02 13:28:26;;;;;;;0.30;0.30;;;;;;;;;;5070048;28;20041;-78
2021/06/02 13:30:58;;;;;;;0.52;0.30;;;;;;;;;;5072604;28;20052;-78
2021/06/02 13:33:25;;;;;;;0.40;0.30;;;;;;;;;;5076575;28;20037;-78
2021/06/02 13:36:02;;;;;;;0.77;0.30;;;;;;;;;;5074145;28;20032;-78
2021/06/02 13:38:29;;;;;;;0.35;0.35;;;;;;;;;;5076077;28;20093;-78
2021/06/02 13:40:56;;;;;;;0.32;0.32;;;;;;;;;;5072729;28;20033;-78
2021/06/02 13:43:23;;;;;;;2.13;0.20;;;;;;;;;;5070299;28;20040;-78
2021/06/02 13:46:05;;;;;;;1.33;0.30;;;;;;;;;;5075904;28;20032;-78
2021/06/02 13:48:35;;;;;;;0.25;0.25;;;;;;;;;;5084563;28;20029;-78
2021/06/02 13:51:08;;;;;;;1.20;0.30;;;;;;;;;;5074633;28;20086;-78
2021/06/02 13:53:35;;;;;;;1.65;0.30;;;;;;;;;;5075126;28;20036;-78
2021/06/02 13:56:02;;;;;;;0.30;0.30;;;;;;;;;;5073920;28;20037;-78
2021/06/02 13:58:29;;;;;;;1.35;0.30;;;;;;;;;;5057726;28;20040;-78
2021/06/02 14:00:55;;;;;;;0.30;0.30;;;;;;;;;;5084813;28;20057;-78
2021/06/02 14:03:22;;;;;;;0.30;0.30;;;;;;;;;;5090497;28;20028;-78
2021/06/02 14:05:52;;;;;;;0.40;0.38;;;;;;;;;;5059989;28;20127;-78
2021/06/02 14:08:19;;;;;;;0.30;0.30;;;;;;;;;;5072018;28;20114;-78
2021/06/02 14:10:46;;;;;;;0.30;0.30;;;;;;;;;;5074303;28;20036;-78
2021/06/02 14:13:13;;;;;;;0.95;0.30;;;;;;;;;;5076888;28;20485;-78
2021/06/02 14:15:40;;;;;;;0.30;0.30;;;;;;;;;;5073087;28;20055;-78
2021/06/02 14:18:07;;;;;;;2.60;0.38;;;;;;;;;;5062444;28;20081;-78
2021/06/02 14:20:35;;;;;;;0.90;0.30;;;;;;;;;;5069782;28;20109;-78
2021/06/02 14:23:02;;;;;;;0.30;0.30;;;;;;;;;;5072713;28;20490;-78
2021/06/02 14:25:28;;;;;;;0.30;0.30;;;;;;;;;;5072364;28;20044;-78
2021/06/02 14:27:55;;;;;;;0.38;0.38;;;;;;;;;;5069768;28;20394;-78
2021/06/02 14:30:22;;;;;;;0.63;0.30;;;;;;;;;;5071450;28;20041;-78
2021/06/02 14:32:49;;;;;;;0.30;0.30;;;;;;;;;;5068919;28;20063;-78
2021/06/02 14:35:16;;;;;;;0.30;0.30;;;;;;;;;;5096171;27;20046;-78
2021/06/02 14:37:43;;;;;;;0.60;0.38;;;;;;;;;;5061860;28;20048;-78
2021/06/02 14:40:10;;;;;;;0.70;0.40;;;;;;;;;;5072894;28;20385;-79
2021/06/02 14:42:37;;;;;;;0.40;0.40;;;;;;;;;;5092517;28;20032;-79
2021/06/02 14:45:05;;;;;;;0.30;0.30;;;;;;;;;;5068360;28;20110;-79
2021/06/02 14:47:32;;;;;;;0.60;0.30;;;;;;;;;;5059586;28;20036;-79
2021/06/02 14:49:58;;;;;;;0.30;0.30;;;;;;;;;;5060975;28;20076;-79
2021/06/02 14:52:29;;;;;;;0.45;0.30;;;;;;;;;;5066177;28;20044;-79
2021/06/02 14:54:56;;;;;;;0.43;0.40;;;;;;;;;;5073043;28;20043;-79
2021/06/02 14:57:23;;;;;;;0.40;0.40;;;;;;;;;;5073924;28;20489;-79
2021/06/02 14:59:50;;;;;;;4.40;0.40;;;;;;;;;;5069017;28;20115;-79
2021/06/02 15:02:21;;;;;;;0.40;0.40;;;;;;;;;;5072032;28;20087;-79
2021/06/02 15:04:48;;;;;;;0.40;0.40;;;;;;;;;;5100666;27;20078;-79
2021/06/02 15:07:15;;;;;;;0.30;0.30;;;;;;;;;;5069624;28;20040;-79
2021/06/02 15:09:41;;;;;;;1.40;0.40;;;;;;;;;;5073049;28;20055;-79
2021/06/02 15:12:09;;;;;;;0.30;0.30;;;;;;;;;;5073543;28;20457;-79